sensor_id;sensor_type;location;lat;lon;timestamp;noise_LAeq;noise_LA_min;noise_LA_max;noise_LA01;noise_LA95
68279;Laerm;55108;51.790;10.960;2024-03-23T00:53:02;35.50;34.80;39.22;;
68279;Laerm;55108;51.790;10.960;2024-03-23T00:55:28;35.90;34.86;40.07;;
68279;Laerm;55108;51.790;10.960;2024-03-23T00:57:53;35.77;34.91;37.36;;
68279;Laerm;55108;51.790;10.960;2024-03-23T01:00:19;57.45;34.97;74.58;;
68279;Laerm;55108;51.790;10.960;2024-03-23T01:02:45;55.09;34.96;71.21;;
68279;Laerm;55108;51.790;10.960;2024-03-23T01:05:11;36.31;34.94;42.30;;
68279;Laerm;55108;51.790;10.960;2024-03-23T01:07:37;36.58;34.89;43.95;;
68279;Laerm;55108;51.790;10.960;2024-03-23T01:10:02;35.78;34.89;38.53;;
68279;Laerm;55108;51.790;10.960;2024-03-23T01:12:29;35.97;34.99;41.18;;
68279;Laerm;55108;51.790;10.960;2024-03-23T01:14:54;35.75;35.01;37.65;;
68279;Laerm;55108;51.790;10.960;2024-03-23T01:17:20;35.67;34.99;36.42;;
68279;Laerm;55108;51.790;10.960;2024-03-23T01:19:46;35.71;35.00;36.39;;
68279;Laerm;55108;51.790;10.960;2024-03-23T01:22:12;35.75;35.12;36.60;;
68279;Laerm;55108;51.790;10.960;2024-03-23T01:24:37;35.77;35.07;38.90;;
68279;Laerm;55108;51.790;10.960;2024-03-23T01:27:03;36.91;35.19;55.00;;
68279;Laerm;55108;51.790;10.960;2024-03-23T01:29:29;35.89;35.18;36.64;;
68279;Laerm;55108;51.790;10.960;2024-03-23T01:31:55;35.96;35.00;38.18;;
68279;Laerm;55108;51.790;10.960;2024-03-23T01:34:21;36.36;35.06;41.87;;
68279;Laerm;55108;51.790;10.960;2024-03-23T01:36:47;36.06;35.31;37.37;;
68279;Laerm;55108;51.790;10.960;2024-03-23T01:39:13;36.22;35.24;38.68;;
68279;Laerm;55108;51.790;10.960;2024-03-23T01:41:39;35.96;35.33;37.76;;
68279;Laerm;55108;51.790;10.960;2024-03-23T01:44:07;36.43;35.28;41.05;;
68279;Laerm;55108;51.790;10.960;2024-03-23T01:46:33;49.74;35.49;65.34;;
68279;Laerm;55108;51.790;10.960;2024-03-23T01:48:59;36.12;35.35;39.05;;
68279;Laerm;55108;51.790;10.960;2024-03-23T01:51:25;49.27;35.54;65.07;;
68279;Laerm;55108;51.790;10.960;2024-03-23T01:53:51;36.12;35.31;37.27;;
68279;Laerm;55108;51.790;10.960;2024-03-23T01:56:18;36.10;35.34;37.51;;
68279;Laerm;55108;51.790;10.960;2024-03-23T01:58:44;36.09;35.34;36.81;;
68279;Laerm;55108;51.790;10.960;2024-03-23T02:01:10;36.79;35.46;45.39;;
68279;Laerm;55108;51.790;10.960;2024-03-23T02:03:36;56.93;35.36;73.31;;
68279;Laerm;55108;51.790;10.960;2024-03-23T02:06:01;36.02;35.33;39.85;;
68279;Laerm;55108;51.790;10.960;2024-03-23T02:08:27;36.05;35.34;36.72;;
68279;Laerm;55108;51.790;10.960;2024-03-23T02:10:54;36.23;35.33;38.71;;
68279;Laerm;55108;51.790;10.960;2024-03-23T02:13:19;36.17;35.29;39.52;;
68279;Laerm;55108;51.790;10.960;2024-03-23T02:15:45;36.77;35.22;44.12;;
68279;Laerm;55108;51.790;10.960;2024-03-23T02:18:11;35.97;35.20;36.61;;
68279;Laerm;55108;51.790;10.960;2024-03-23T02:20:37;35.97;35.26;36.79;;
68279;Laerm;55108;51.790;10.960;2024-03-23T02:23:03;36.06;35.38;38.05;;
68279;Laerm;55108;51.790;10.960;2024-03-23T02:25:31;36.01;35.11;37.31;;
68279;Laerm;55108;51.790;10.960;2024-03-23T02:27:56;36.93;35.34;42.74;;
68279;Laerm;55108;51.790;10.960;2024-03-23T02:30:23;36.16;35.38;39.21;;
68279;Laerm;55108;51.790;10.960;2024-03-23T02:32:49;52.96;35.24;71.54;;
68279;Laerm;55108;51.790;10.960;2024-03-23T02:35:15;36.68;35.23;44.98;;
68279;Laerm;55108;51.790;10.960;2024-03-23T02:37:40;36.03;35.35;36.82;;
68279;Laerm;55108;51.790;10.960;2024-03-23T02:40:06;59.74;35.43;79.75;;
68279;Laerm;55108;51.790;10.960;2024-03-23T02:42:32;36.14;35.32;38.72;;
68279;Laerm;55108;51.790;10.960;2024-03-23T02:44:58;58.31;35.33;73.31;;
68279;Laerm;55108;51.790;10.960;2024-03-23T02:47:24;35.99;35.26;36.80;;
68279;Laerm;55108;51.790;10.960;2024-03-23T02:49:49;36.12;35.29;38.69;;
68279;Laerm;55108;51.790;10.960;2024-03-23T02:52:15;59.48;35.71;75.27;;
68279;Laerm;55108;51.790;10.960;2024-03-23T02:54:41;36.56;35.36;40.76;;
68279;Laerm;55108;51.790;10.960;2024-03-23T02:57:10;49.85;35.58;66.74;;
68279;Laerm;55108;51.790;10.960;2024-03-23T02:59:36;39.06;35.33;50.19;;
68279;Laerm;55108;51.790;10.960;2024-03-23T03:02:02;46.53;35.42;65.69;;
68279;Laerm;55108;51.790;10.960;2024-03-23T03:04:29;36.38;35.44;38.95;;
68279;Laerm;55108;51.790;10.960;2024-03-23T03:06:55;58.86;35.73;75.96;;
68279;Laerm;55108;51.790;10.960;2024-03-23T03:09:21;36.20;35.33;37.53;;
68279;Laerm;55108;51.790;10.960;2024-03-23T03:11:46;36.11;35.46;37.06;;
68279;Laerm;55108;51.790;10.960;2024-03-23T03:14:12;36.53;35.42;40.65;;
68279;Laerm;55108;51.790;10.960;2024-03-23T03:16:38;36.53;35.59;39.20;;
68279;Laerm;55108;51.790;10.960;2024-03-23T03:19:04;55.80;35.77;72.73;;
68279;Laerm;55108;51.790;10.960;2024-03-23T03:21:29;53.69;35.74;73.75;;
68279;Laerm;55108;51.790;10.960;2024-03-23T03:23:55;36.41;35.57;38.37;;
68279;Laerm;55108;51.790;10.960;2024-03-23T03:26:21;36.74;35.65;42.79;;
68279;Laerm;55108;51.790;10.960;2024-03-23T03:28:47;54.41;35.74;68.58;;
68279;Laerm;55108;51.790;10.960;2024-03-23T03:31:17;54.51;35.75;72.26;;
68279;Laerm;55108;51.790;10.960;2024-03-23T03:33:43;38.04;36.14;41.85;;
68279;Laerm;55108;51.790;10.960;2024-03-23T03:36:09;47.60;37.26;64.21;;
68279;Laerm;55108;51.790;10.960;2024-03-23T03:38:35;39.95;37.69;42.80;;
68279;Laerm;55108;51.790;10.960;2024-03-23T03:41:03;56.88;37.90;74.77;;
68279;Laerm;55108;51.790;10.960;2024-03-23T03:43:29;42.23;39.52;45.77;;
68279;Laerm;55108;51.790;10.960;2024-03-23T03:45:56;55.46;37.99;72.00;;
68279;Laerm;55108;51.790;10.960;2024-03-23T03:48:22;41.13;37.04;54.43;;
68279;Laerm;55108;51.790;10.960;2024-03-23T03:50:47;58.20;37.27;76.08;;
68279;Laerm;55108;51.790;10.960;2024-03-23T03:53:13;49.93;38.04;65.50;;
68279;Laerm;55108;51.790;10.960;2024-03-23T03:55:39;40.99;37.68;52.09;;
68279;Laerm;55108;51.790;10.960;2024-03-23T03:58:04;41.02;37.78;50.82;;
68279;Laerm;55108;51.790;10.960;2024-03-23T04:00:30;40.89;38.72;47.34;;
68279;Laerm;55108;51.790;10.960;2024-03-23T04:02:56;39.55;37.77;46.11;;
68279;Laerm;55108;51.790;10.960;2024-03-23T04:05:22;41.03;38.24;46.79;;
68279;Laerm;55108;51.790;10.960;2024-03-23T04:07:48;51.02;39.21;67.20;;
68279;Laerm;55108;51.790;10.960;2024-03-23T04:10:13;57.36;39.14;76.85;;
68279;Laerm;55108;51.790;10.960;2024-03-23T04:12:40;43.93;39.02;56.74;;
68279;Laerm;55108;51.790;10.960;2024-03-23T04:15:05;57.71;39.21;70.70;;
68279;Laerm;55108;51.790;10.960;2024-03-23T04:17:31;57.26;39.18;74.95;;
68279;Laerm;55108;51.790;10.960;2024-03-23T04:19:59;54.45;39.64;70.38;;
68279;Laerm;55108;51.790;10.960;2024-03-23T04:22:25;62.51;40.44;80.55;;
68279;Laerm;55108;51.790;10.960;2024-03-23T04:24:57;42.23;39.39;47.12;;
68279;Laerm;55108;51.790;10.960;2024-03-23T04:27:23;58.13;40.96;75.36;;
68279;Laerm;55108;51.790;10.960;2024-03-23T04:29:49;42.42;39.96;47.89;;
68279;Laerm;55108;51.790;10.960;2024-03-23T04:32:15;42.92;40.43;50.05;;
68279;Laerm;55108;51.790;10.960;2024-03-23T04:34:41;58.16;41.07;73.26;;
68279;Laerm;55108;51.790;10.960;2024-03-23T04:37:06;57.42;41.04;71.16;;
68279;Laerm;55108;51.790;10.960;2024-03-23T04:39:32;59.66;41.85;76.55;;
68279;Laerm;55108;51.790;10.960;2024-03-23T04:41:58;57.63;42.27;73.99;;
68279;Laerm;55108;51.790;10.960;2024-03-23T04:44:24;53.73;42.52;71.55;;
68279;Laerm;55108;51.790;10.960;2024-03-23T04:46:49;59.96;43.66;74.84;;
68279;Laerm;55108;51.790;10.960;2024-03-23T04:49:15;58.22;42.77;70.99;;
68279;Laerm;55108;51.790;10.960;2024-03-23T04:51:41;59.08;41.44;74.15;;
68279;Laerm;55108;51.790;10.960;2024-03-23T04:54:14;63.65;42.80;79.49;;
68279;Laerm;55108;51.790;10.960;2024-03-23T04:56:40;55.36;44.26;70.87;;
68279;Laerm;55108;51.790;10.960;2024-03-23T04:59:06;66.09;43.57;82.58;;
68279;Laerm;55108;51.790;10.960;2024-03-23T05:01:31;54.62;42.59;72.18;;
68279;Laerm;55108;51.790;10.960;2024-03-23T05:03:57;57.95;42.48;70.88;;
68279;Laerm;55108;51.790;10.960;2024-03-23T05:06:23;59.35;41.70;71.93;;
68279;Laerm;55108;51.790;10.960;2024-03-23T05:08:49;63.19;43.59;76.87;;
68279;Laerm;55108;51.790;10.960;2024-03-23T05:11:15;53.56;42.80;70.44;;
68279;Laerm;55108;51.790;10.960;2024-03-23T05:13:41;58.60;41.93;73.93;;
68279;Laerm;55108;51.790;10.960;2024-03-23T05:16:07;59.43;41.79;76.89;;
68279;Laerm;55108;51.790;10.960;2024-03-23T05:18:33;67.15;41.65;85.84;;
68279;Laerm;55108;51.790;10.960;2024-03-23T05:20:59;62.77;43.08;77.15;;
68279;Laerm;55108;51.790;10.960;2024-03-23T05:23:25;54.97;43.76;70.11;;
68279;Laerm;55108;51.790;10.960;2024-03-23T05:25:50;57.63;44.73;73.08;;
68279;Laerm;55108;51.790;10.960;2024-03-23T05:28:19;61.13;44.18;75.47;;
68279;Laerm;55108;51.790;10.960;2024-03-23T05:30:50;61.01;43.30;76.31;;
68279;Laerm;55108;51.790;10.960;2024-03-23T05:33:15;63.91;43.05;77.99;;
68279;Laerm;55108;51.790;10.960;2024-03-23T05:35:41;62.83;42.42;80.53;;
68279;Laerm;55108;51.790;10.960;2024-03-23T05:38:07;58.00;42.75;74.25;;
68279;Laerm;55108;51.790;10.960;2024-03-23T05:40:33;60.19;42.36;76.94;;
68279;Laerm;55108;51.790;10.960;2024-03-23T05:43:02;53.71;42.70;70.18;;
68279;Laerm;55108;51.790;10.960;2024-03-23T05:45:28;67.06;41.94;81.02;;
68279;Laerm;55108;51.790;10.960;2024-03-23T05:47:54;61.66;42.99;77.80;;
68279;Laerm;55108;51.790;10.960;2024-03-23T05:50:21;62.63;42.54;76.55;;
68279;Laerm;55108;51.790;10.960;2024-03-23T05:52:47;64.34;42.73;78.82;;
68279;Laerm;55108;51.790;10.960;2024-03-23T05:55:13;66.33;43.36;78.12;;
68279;Laerm;55108;51.790;10.960;2024-03-23T05:57:39;60.75;42.99;72.88;;
68279;Laerm;55108;51.790;10.960;2024-03-23T06:00:05;62.19;42.08;79.20;;
68279;Laerm;55108;51.790;10.960;2024-03-23T06:02:35;61.77;41.52;75.69;;
68279;Laerm;55108;51.790;10.960;2024-03-23T06:05:01;61.42;41.06;75.90;;
68279;Laerm;55108;51.790;10.960;2024-03-23T06:07:27;65.40;41.79;80.89;;
68279;Laerm;55108;51.790;10.960;2024-03-23T06:09:53;61.99;42.73;77.84;;
68279;Laerm;55108;51.790;10.960;2024-03-23T06:12:18;64.13;41.39;78.77;;
68279;Laerm;55108;51.790;10.960;2024-03-23T06:14:46;62.23;40.79;78.51;;
68279;Laerm;55108;51.790;10.960;2024-03-23T06:17:13;63.30;40.74;75.92;;
68279;Laerm;55108;51.790;10.960;2024-03-23T06:19:39;60.86;40.74;75.46;;
68279;Laerm;55108;51.790;10.960;2024-03-23T06:22:04;60.40;40.77;72.14;;
68279;Laerm;55108;51.790;10.960;2024-03-23T06:24:31;60.87;40.93;74.52;;
68279;Laerm;55108;51.790;10.960;2024-03-23T06:26:57;59.85;40.76;75.81;;
68279;Laerm;55108;51.790;10.960;2024-03-23T06:29:23;61.72;41.14;76.59;;
68279;Laerm;55108;51.790;10.960;2024-03-23T06:31:53;62.49;42.31;76.56;;
68279;Laerm;55108;51.790;10.960;2024-03-23T06:34:18;61.74;42.25;75.86;;
68279;Laerm;55108;51.790;10.960;2024-03-23T06:36:45;64.13;41.96;78.16;;
68279;Laerm;55108;51.790;10.960;2024-03-23T06:39:12;64.32;42.75;77.81;;
68279;Laerm;55108;51.790;10.960;2024-03-23T06:41:40;65.92;41.65;77.74;;
68279;Laerm;55108;51.790;10.960;2024-03-23T06:44:06;63.08;41.12;75.67;;
68279;Laerm;55108;51.790;10.960;2024-03-23T06:46:31;60.52;40.92;75.23;;
68279;Laerm;55108;51.790;10.960;2024-03-23T06:48:57;64.10;43.21;75.18;;
68279;Laerm;55108;51.790;10.960;2024-03-23T06:51:23;62.63;41.15;74.82;;
68279;Laerm;55108;51.790;10.960;2024-03-23T06:53:49;64.81;41.44;76.92;;
68279;Laerm;55108;51.790;10.960;2024-03-23T06:56:15;61.94;42.39;74.64;;
68279;Laerm;55108;51.790;10.960;2024-03-23T06:58:41;61.68;42.32;78.80;;
68279;Laerm;55108;51.790;10.960;2024-03-23T07:01:06;63.34;44.99;75.16;;
68279;Laerm;55108;51.790;10.960;2024-03-23T07:03:32;63.95;44.27;77.90;;
68279;Laerm;55108;51.790;10.960;2024-03-23T07:05:58;62.35;44.04;74.38;;
68279;Laerm;55108;51.790;10.960;2024-03-23T07:08:24;66.82;46.85;81.35;;
68279;Laerm;55108;51.790;10.960;2024-03-23T07:10:49;65.38;44.29;78.35;;
68279;Laerm;55108;51.790;10.960;2024-03-23T07:13:15;66.27;46.05;76.66;;
68279;Laerm;55108;51.790;10.960;2024-03-23T07:15:42;59.85;41.98;71.96;;
68279;Laerm;55108;51.790;10.960;2024-03-23T07:18:08;65.60;41.82;77.21;;
68279;Laerm;55108;51.790;10.960;2024-03-23T07:20:33;62.21;40.80;75.13;;
68279;Laerm;55108;51.790;10.960;2024-03-23T07:22:59;65.47;40.95;78.91;;
68279;Laerm;55108;51.790;10.960;2024-03-23T07:25:25;65.83;42.60;77.58;;
68279;Laerm;55108;51.790;10.960;2024-03-23T07:27:53;63.74;42.01;73.21;;
68279;Laerm;55108;51.790;10.960;2024-03-23T07:30:18;65.22;42.06;74.59;;
68279;Laerm;55108;51.790;10.960;2024-03-23T07:32:44;60.08;39.93;71.05;;
68279;Laerm;55108;51.790;10.960;2024-03-23T07:35:10;63.05;41.25;74.38;;
68279;Laerm;55108;51.790;10.960;2024-03-23T07:37:36;61.45;40.25;72.20;;
68279;Laerm;55108;51.790;10.960;2024-03-23T07:40:01;64.50;45.10;76.62;;
68279;Laerm;55108;51.790;10.960;2024-03-23T07:42:27;64.11;42.03;75.64;;
68279;Laerm;55108;51.790;10.960;2024-03-23T07:44:53;64.52;43.50;76.60;;
68279;Laerm;55108;51.790;10.960;2024-03-23T07:47:21;56.37;40.54;73.01;;
68279;Laerm;55108;51.790;10.960;2024-03-23T07:49:47;60.92;41.57;71.46;;
68279;Laerm;55108;51.790;10.960;2024-03-23T07:52:13;64.50;45.32;74.77;;
68279;Laerm;55108;51.790;10.960;2024-03-23T07:54:39;64.27;43.34;78.01;;
68279;Laerm;55108;51.790;10.960;2024-03-23T07:57:05;65.50;43.38;76.36;;
68279;Laerm;55108;51.790;10.960;2024-03-23T07:59:31;67.54;44.29;80.18;;
68279;Laerm;55108;51.790;10.960;2024-03-23T08:01:58;64.86;42.38;76.88;;
68279;Laerm;55108;51.790;10.960;2024-03-23T08:04:24;65.26;41.79;78.06;;
68279;Laerm;55108;51.790;10.960;2024-03-23T08:06:50;66.96;44.16;74.61;;
68279;Laerm;55108;51.790;10.960;2024-03-23T08:09:16;66.49;44.34;78.32;;
68279;Laerm;55108;51.790;10.960;2024-03-23T08:11:43;64.81;42.13;76.72;;
68279;Laerm;55108;51.790;10.960;2024-03-23T08:14:10;63.76;42.85;75.72;;
68279;Laerm;55108;51.790;10.960;2024-03-23T08:16:36;67.39;41.96;76.29;;
68279;Laerm;55108;51.790;10.960;2024-03-23T08:19:02;66.14;42.63;74.14;;
68279;Laerm;55108;51.790;10.960;2024-03-23T08:21:30;66.09;42.91;78.02;;
68279;Laerm;55108;51.790;10.960;2024-03-23T08:23:56;65.06;44.86;76.25;;
68279;Laerm;55108;51.790;10.960;2024-03-23T08:26:21;64.05;44.03;74.27;;
68279;Laerm;55108;51.790;10.960;2024-03-23T08:28:47;66.71;45.39;75.84;;
68279;Laerm;55108;51.790;10.960;2024-03-23T08:31:13;65.77;44.70;76.58;;
68279;Laerm;55108;51.790;10.960;2024-03-23T08:33:41;66.83;44.15;76.86;;
68279;Laerm;55108;51.790;10.960;2024-03-23T08:36:09;66.50;44.70;77.95;;
68279;Laerm;55108;51.790;10.960;2024-03-23T08:38:37;66.10;44.35;77.01;;
68279;Laerm;55108;51.790;10.960;2024-03-23T08:41:03;65.14;43.58;77.61;;
68279;Laerm;55108;51.790;10.960;2024-03-23T08:43:29;65.78;44.92;76.90;;
68279;Laerm;55108;51.790;10.960;2024-03-23T08:46:08;64.87;41.81;76.44;;
68279;Laerm;55108;51.790;10.960;2024-03-23T08:48:37;65.67;42.84;75.87;;
68279;Laerm;55108;51.790;10.960;2024-03-23T08:51:04;65.02;43.32;76.96;;
68279;Laerm;55108;51.790;10.960;2024-03-23T08:53:30;66.23;42.08;75.82;;
68279;Laerm;55108;51.790;10.960;2024-03-23T08:55:56;66.28;45.01;74.29;;
68279;Laerm;55108;51.790;10.960;2024-03-23T08:58:23;66.34;50.95;74.97;;
68279;Laerm;55108;51.790;10.960;2024-03-23T09:00:49;66.18;44.25;75.60;;
68279;Laerm;55108;51.790;10.960;2024-03-23T09:03:15;63.30;41.53;74.08;;
68279;Laerm;55108;51.790;10.960;2024-03-23T09:05:40;63.89;41.86;73.00;;
68279;Laerm;55108;51.790;10.960;2024-03-23T09:08:06;63.00;41.22;73.31;;
68279;Laerm;55108;51.790;10.960;2024-03-23T09:10:38;64.42;42.54;73.01;;
68279;Laerm;55108;51.790;10.960;2024-03-23T09:13:03;65.65;42.97;78.54;;
68279;Laerm;55108;51.790;10.960;2024-03-23T09:15:29;65.94;46.67;74.07;;
68279;Laerm;55108;51.790;10.960;2024-03-23T09:17:56;64.52;41.93;76.01;;
68279;Laerm;55108;51.790;10.960;2024-03-23T09:20:21;63.42;45.62;71.70;;
68279;Laerm;55108;51.790;10.960;2024-03-23T09:22:48;66.32;44.44;75.27;;
68279;Laerm;55108;51.790;10.960;2024-03-23T09:25:13;65.96;46.21;74.13;;
68279;Laerm;55108;51.790;10.960;2024-03-23T09:27:39;65.47;43.63;72.59;;
68279;Laerm;55108;51.790;10.960;2024-03-23T09:30:05;65.15;43.95;78.54;;
68279;Laerm;55108;51.790;10.960;2024-03-23T09:32:31;63.54;40.93;75.44;;
68279;Laerm;55108;51.790;10.960;2024-03-23T09:34:56;66.08;47.91;75.18;;
68279;Laerm;55108;51.790;10.960;2024-03-23T09:37:22;64.27;40.72;72.29;;
68279;Laerm;55108;51.790;10.960;2024-03-23T09:39:48;63.86;40.49;74.25;;
68279;Laerm;55108;51.790;10.960;2024-03-23T09:42:13;64.94;42.00;74.63;;
68279;Laerm;55108;51.790;10.960;2024-03-23T09:44:39;62.81;38.92;73.40;;
68279;Laerm;55108;51.790;10.960;2024-03-23T09:47:05;64.95;41.07;75.75;;
68279;Laerm;55108;51.790;10.960;2024-03-23T09:49:34;65.68;43.48;76.26;;
68279;Laerm;55108;51.790;10.960;2024-03-23T09:52:02;61.89;38.28;72.83;;
68279;Laerm;55108;51.790;10.960;2024-03-23T09:54:27;65.52;46.52;81.85;;
68279;Laerm;55108;51.790;10.960;2024-03-23T09:56:53;65.26;46.06;73.73;;
68279;Laerm;55108;51.790;10.960;2024-03-23T09:59:19;65.28;44.36;74.82;;
68279;Laerm;55108;51.790;10.960;2024-03-23T10:01:44;64.68;43.98;74.57;;
68279;Laerm;55108;51.790;10.960;2024-03-23T10:04:10;66.62;43.26;77.56;;
68279;Laerm;55108;51.790;10.960;2024-03-23T10:06:36;63.95;43.39;72.71;;
68279;Laerm;55108;51.790;10.960;2024-03-23T10:09:02;65.66;44.89;73.85;;
68279;Laerm;55108;51.790;10.960;2024-03-23T10:11:42;65.21;42.60;73.81;;
68279;Laerm;55108;51.790;10.960;2024-03-23T10:14:09;64.36;41.27;74.89;;
68279;Laerm;55108;51.790;10.960;2024-03-23T10:16:34;66.13;44.20;74.97;;
68279;Laerm;55108;51.790;10.960;2024-03-23T10:19:00;63.72;42.95;72.92;;
68279;Laerm;55108;51.790;10.960;2024-03-23T10:21:26;64.10;41.45;72.40;;
68279;Laerm;55108;51.790;10.960;2024-03-23T10:23:52;63.58;40.64;73.15;;
68279;Laerm;55108;51.790;10.960;2024-03-23T10:26:24;63.84;43.75;72.51;;
68279;Laerm;55108;51.790;10.960;2024-03-23T10:31:23;63.26;40.93;73.18;;
68279;Laerm;55108;51.790;10.960;2024-03-23T10:33:49;66.11;43.61;75.45;;
68279;Laerm;55108;51.790;10.960;2024-03-23T10:36:15;62.46;40.41;74.14;;
68279;Laerm;55108;51.790;10.960;2024-03-23T10:38:41;62.82;41.80;71.88;;
68279;Laerm;55108;51.790;10.960;2024-03-23T10:41:08;63.85;40.89;73.67;;
68279;Laerm;55108;51.790;10.960;2024-03-23T10:43:34;64.09;39.55;72.79;;
68279;Laerm;55108;51.790;10.960;2024-03-23T10:46:01;65.64;39.25;77.83;;
68279;Laerm;55108;51.790;10.960;2024-03-23T10:48:27;65.10;40.52;76.24;;
68279;Laerm;55108;51.790;10.960;2024-03-23T10:50:53;65.22;42.04;73.57;;
68279;Laerm;55108;51.790;10.960;2024-03-23T10:53:19;64.95;42.72;73.35;;
68279;Laerm;55108;51.790;10.960;2024-03-23T10:55:46;64.47;40.68;74.21;;
68279;Laerm;55108;51.790;10.960;2024-03-23T10:58:12;65.93;43.84;72.59;;
68279;Laerm;55108;51.790;10.960;2024-03-23T11:00:38;65.98;42.97;73.29;;
68279;Laerm;55108;51.790;10.960;2024-03-23T11:05:48;62.94;42.28;72.27;;
68279;Laerm;55108;51.790;10.960;2024-03-23T11:08:29;64.65;41.97;76.16;;
68279;Laerm;55108;51.790;10.960;2024-03-23T11:11:08;63.59;42.21;75.74;;
68279;Laerm;55108;51.790;10.960;2024-03-23T11:13:36;64.76;41.72;75.75;;
68279;Laerm;55108;51.790;10.960;2024-03-23T11:16:22;66.37;45.03;81.63;;
68279;Laerm;55108;51.790;10.960;2024-03-23T11:18:48;62.81;38.59;73.21;;
68279;Laerm;55108;51.790;10.960;2024-03-23T11:24:13;64.03;40.74;73.34;;
68279;Laerm;55108;51.790;10.960;2024-03-23T11:26:39;64.04;40.48;74.43;;
68279;Laerm;55108;51.790;10.960;2024-03-23T11:29:09;65.95;41.20;73.03;;
68279;Laerm;55108;51.790;10.960;2024-03-23T11:31:36;62.59;43.68;76.41;;
68279;Laerm;55108;51.790;10.960;2024-03-23T11:34:05;61.66;43.63;72.30;;
68279;Laerm;55108;51.790;10.960;2024-03-23T11:36:31;64.47;45.27;73.51;;
68279;Laerm;55108;51.790;10.960;2024-03-23T11:38:57;66.62;47.85;74.88;;
68279;Laerm;55108;51.790;10.960;2024-03-23T11:41:23;67.13;47.64;76.23;;
68279;Laerm;55108;51.790;10.960;2024-03-23T11:43:48;65.94;42.19;74.31;;
68279;Laerm;55108;51.790;10.960;2024-03-23T11:46:23;62.69;40.57;76.19;;
68279;Laerm;55108;51.790;10.960;2024-03-23T11:48:49;67.21;42.56;78.51;;
68279;Laerm;55108;51.790;10.960;2024-03-23T11:51:16;65.81;44.18;76.76;;
68279;Laerm;55108;51.790;10.960;2024-03-23T11:53:42;67.12;42.46;76.86;;
68279;Laerm;55108;51.790;10.960;2024-03-23T11:56:08;64.33;40.43;74.84;;
68279;Laerm;55108;51.790;10.960;2024-03-23T11:58:34;63.89;38.46;75.39;;
68279;Laerm;55108;51.790;10.960;2024-03-23T12:01:00;65.00;41.81;74.69;;
68279;Laerm;55108;51.790;10.960;2024-03-23T12:03:30;66.12;42.17;76.13;;
68279;Laerm;55108;51.790;10.960;2024-03-23T12:05:58;64.82;41.91;75.63;;
68279;Laerm;55108;51.790;10.960;2024-03-23T12:08:33;66.43;39.25;75.79;;
68279;Laerm;55108;51.790;10.960;2024-03-23T12:11:09;64.47;39.48;75.86;;
68279;Laerm;55108;51.790;10.960;2024-03-23T12:13:36;65.01;40.16;74.50;;
68279;Laerm;55108;51.790;10.960;2024-03-23T12:16:20;64.20;41.12;73.43;;
68279;Laerm;55108;51.790;10.960;2024-03-23T12:18:46;65.79;39.96;75.84;;
68279;Laerm;55108;51.790;10.960;2024-03-23T12:21:13;65.22;38.60;74.57;;
68279;Laerm;55108;51.790;10.960;2024-03-23T12:23:39;66.66;44.13;76.01;;
68279;Laerm;55108;51.790;10.960;2024-03-23T12:26:05;62.81;40.94;73.79;;
68279;Laerm;55108;51.790;10.960;2024-03-23T12:28:31;64.69;41.24;74.92;;
68279;Laerm;55108;51.790;10.960;2024-03-23T12:30:57;62.40;39.53;73.39;;
68279;Laerm;55108;51.790;10.960;2024-03-23T12:33:22;64.86;44.47;73.91;;
68279;Laerm;55108;51.790;10.960;2024-03-23T12:35:48;64.07;38.63;74.91;;
68279;Laerm;55108;51.790;10.960;2024-03-23T12:38:15;63.69;41.96;74.41;;
68279;Laerm;55108;51.790;10.960;2024-03-23T12:40:41;64.02;40.26;73.97;;
68279;Laerm;55108;51.790;10.960;2024-03-23T12:43:07;63.94;39.49;73.25;;
68279;Laerm;55108;51.790;10.960;2024-03-23T12:45:33;65.07;45.91;78.19;;
68279;Laerm;55108;51.790;10.960;2024-03-23T12:47:58;63.57;43.67;71.99;;
68279;Laerm;55108;51.790;10.960;2024-03-23T12:50:24;63.73;41.50;73.58;;
68279;Laerm;55108;51.790;10.960;2024-03-23T12:52:50;65.01;41.40;76.12;;
68279;Laerm;55108;51.790;10.960;2024-03-23T12:55:16;64.21;44.49;73.99;;
68279;Laerm;55108;51.790;10.960;2024-03-23T12:57:42;61.31;39.03;72.64;;
68279;Laerm;55108;51.790;10.960;2024-03-23T13:00:07;65.40;39.12;74.25;;
68279;Laerm;55108;51.790;10.960;2024-03-23T13:02:36;65.15;43.00;74.70;;
68279;Laerm;55108;51.790;10.960;2024-03-23T13:05:03;65.02;41.43;73.41;;
68279;Laerm;55108;51.790;10.960;2024-03-23T13:07:29;64.28;40.02;74.85;;
68279;Laerm;55108;51.790;10.960;2024-03-23T13:09:55;64.78;39.52;79.87;;
68279;Laerm;55108;51.790;10.960;2024-03-23T13:12:21;63.99;40.74;74.87;;
68279;Laerm;55108;51.790;10.960;2024-03-23T13:14:47;63.46;39.94;74.23;;
68279;Laerm;55108;51.790;10.960;2024-03-23T13:17:13;64.37;43.71;75.39;;
68279;Laerm;55108;51.790;10.960;2024-03-23T13:19:39;64.53;38.36;75.10;;
68279;Laerm;55108;51.790;10.960;2024-03-23T13:22:05;64.14;43.63;76.28;;
68279;Laerm;55108;51.790;10.960;2024-03-23T13:24:30;62.32;36.33;73.43;;
68279;Laerm;55108;51.790;10.960;2024-03-23T13:26:56;65.01;40.95;75.39;;
68279;Laerm;55108;51.790;10.960;2024-03-23T13:29:22;63.39;39.26;73.75;;
68279;Laerm;55108;51.790;10.960;2024-03-23T13:31:49;64.38;39.89;74.94;;
68279;Laerm;55108;51.790;10.960;2024-03-23T13:34:15;64.38;42.59;72.89;;
68279;Laerm;55108;51.790;10.960;2024-03-23T13:36:41;63.46;39.29;79.30;;
68279;Laerm;55108;51.790;10.960;2024-03-23T13:39:07;64.25;41.78;72.87;;
68279;Laerm;55108;51.790;10.960;2024-03-23T13:41:39;64.98;42.57;74.38;;
68279;Laerm;55108;51.790;10.960;2024-03-23T13:44:06;62.00;43.29;74.60;;
68279;Laerm;55108;51.790;10.960;2024-03-23T13:46:31;66.28;43.30;75.17;;
68279;Laerm;55108;51.790;10.960;2024-03-23T13:48:57;65.27;42.41;72.94;;
68279;Laerm;55108;51.790;10.960;2024-03-23T13:51:23;64.87;40.18;75.38;;
68279;Laerm;55108;51.790;10.960;2024-03-23T13:53:51;65.06;43.26;73.86;;
68279;Laerm;55108;51.790;10.960;2024-03-23T13:56:17;62.97;39.41;73.78;;
68279;Laerm;55108;51.790;10.960;2024-03-23T13:58:43;65.09;40.23;74.88;;
68279;Laerm;55108;51.790;10.960;2024-03-23T14:01:11;65.58;42.51;78.88;;
68279;Laerm;55108;51.790;10.960;2024-03-23T14:03:37;64.89;39.91;73.81;;
68279;Laerm;55108;51.790;10.960;2024-03-23T14:06:03;63.27;40.63;73.46;;
68279;Laerm;55108;51.790;10.960;2024-03-23T14:08:29;65.46;47.37;73.11;;
68279;Laerm;55108;51.790;10.960;2024-03-23T14:10:58;64.97;40.62;73.11;;
68279;Laerm;55108;51.790;10.960;2024-03-23T14:13:23;65.71;40.90;74.39;;
68279;Laerm;55108;51.790;10.960;2024-03-23T14:15:52;63.00;37.32;75.35;;
68279;Laerm;55108;51.790;10.960;2024-03-23T14:18:18;65.75;39.09;78.03;;
68279;Laerm;55108;51.790;10.960;2024-03-23T14:20:44;63.48;38.03;73.11;;
68279;Laerm;55108;51.790;10.960;2024-03-23T14:23:09;64.84;40.16;73.80;;
68279;Laerm;55108;51.790;10.960;2024-03-23T14:25:35;63.54;37.66;73.70;;
68279;Laerm;55108;51.790;10.960;2024-03-23T14:28:01;62.86;38.10;74.60;;